createdAt,value
2019-06-08T00:00:05.274Z,1007.42
2019-06-08T00:01:05.235Z,1007.41
2019-06-08T00:03:05.136Z,1007.36
2019-06-08T00:04:05.099Z,1007.37
2019-06-08T00:05:05.056Z,1007.39
2019-06-08T00:06:05.008Z,1007.43
2019-06-08T00:07:04.965Z,1007.45
2019-06-08T00:08:04.920Z,1007.49
2019-06-08T00:09:04.891Z,1007.44
2019-06-08T00:10:04.837Z,1007.38
2019-06-08T00:11:04.809Z,1007.45
2019-06-08T00:12:04.750Z,1007.50
2019-06-08T00:13:04.707Z,1007.44
2019-06-08T00:14:04.667Z,1007.41
2019-06-08T00:15:04.614Z,1007.39
2019-06-08T00:16:04.574Z,1007.48
2019-06-08T00:17:04.534Z,1007.35
2019-06-08T00:18:04.492Z,1007.44
2019-06-08T00:19:04.445Z,1007.43
2019-06-08T00:20:04.399Z,1007.42
2019-06-08T00:21:04.357Z,1007.44
2019-06-08T00:23:32.692Z,1007.42
2019-06-08T00:24:29.020Z,1007.46
2019-06-08T00:25:28.980Z,1007.44
2019-06-08T00:26:28.931Z,1007.47
2019-06-08T00:27:28.886Z,1007.48
2019-06-08T00:28:28.842Z,1007.44
2019-06-08T00:29:28.801Z,1007.49
2019-06-08T00:30:28.910Z,1007.50
2019-06-08T00:31:28.713Z,1007.52
2019-06-08T00:32:28.673Z,1007.55
2019-06-08T00:33:28.625Z,1007.56
2019-06-08T00:34:28.581Z,1007.38
2019-06-08T00:35:28.536Z,1007.48
2019-06-08T00:36:28.497Z,1007.50
2019-06-08T00:37:28.465Z,1007.48
2019-06-08T00:38:28.409Z,1007.46
2019-06-08T00:39:28.369Z,1007.49
2019-06-08T00:40:28.321Z,1007.44
2019-06-08T00:41:28.281Z,1007.52
2019-06-08T00:42:28.235Z,1007.54
2019-06-08T00:43:28.191Z,1007.51
2019-06-08T00:44:28.147Z,1007.52
2019-06-08T00:45:28.107Z,1007.47
2019-06-08T00:46:28.067Z,1007.49
2019-06-08T00:47:46.149Z,1007.57
2019-06-08T00:48:28.777Z,1007.59
2019-06-08T00:49:29.104Z,1007.59
2019-06-08T00:50:29.225Z,1007.50
2019-06-08T00:51:29.695Z,1007.50
2019-06-08T00:52:27.799Z,1007.61
2019-06-08T00:53:27.757Z,1007.54
2019-06-08T00:54:27.711Z,1007.60
2019-06-08T00:55:27.673Z,1007.49
2019-06-08T00:56:27.631Z,1007.68
2019-06-08T00:57:27.592Z,1007.60
2019-06-08T00:58:27.541Z,1007.66
2019-06-08T01:00:27.466Z,1007.63
2019-06-08T01:01:28.251Z,1007.67
2019-06-08T01:02:28.587Z,1007.70
2019-06-08T01:03:27.324Z,1007.72
2019-06-08T01:04:27.319Z,1007.67
2019-06-08T01:05:27.236Z,1007.57
2019-06-08T01:06:27.596Z,1007.59
2019-06-08T01:07:27.147Z,1007.61
2019-06-08T01:08:27.484Z,1007.73
2019-06-08T01:09:27.084Z,1007.68
2019-06-08T01:10:27.574Z,1007.65
2019-06-08T01:11:27.119Z,1007.60
2019-06-08T01:12:26.934Z,1007.72
2019-06-08T01:13:26.997Z,1007.71
2019-06-08T01:14:27.143Z,1007.71
2019-06-08T01:15:32.860Z,1007.76
2019-06-08T01:16:27.081Z,1007.72
2019-06-08T01:17:27.463Z,1007.72
2019-06-08T01:18:27.433Z,1007.75
2019-06-08T01:19:27.437Z,1007.78
2019-06-08T01:20:27.522Z,1007.80
2019-06-08T01:21:27.727Z,1007.79
2019-06-08T01:22:27.762Z,1007.77
2019-06-08T01:23:27.774Z,1007.81
2019-06-08T01:24:27.805Z,1007.83
2019-06-08T01:25:26.374Z,1007.85
2019-06-08T01:26:26.322Z,1007.88
2019-06-08T01:27:26.279Z,1007.89
2019-06-08T01:28:26.244Z,1007.95
2019-06-08T01:29:26.328Z,1007.79
2019-06-08T01:30:26.434Z,1007.91
2019-06-08T01:31:26.605Z,1007.93
2019-06-08T01:32:26.384Z,1007.91
2019-06-08T01:33:26.578Z,1007.98
2019-06-08T01:35:26.899Z,1007.90
2019-06-08T01:36:27.402Z,1007.91
2019-06-08T01:37:26.941Z,1007.98
2019-06-08T01:38:27.111Z,1008.00
2019-06-08T01:39:25.758Z,1008.18
2019-06-08T01:40:25.711Z,1007.98
2019-06-08T01:41:25.673Z,1007.87
2019-06-08T01:42:25.627Z,1007.94
2019-06-08T01:43:25.857Z,1007.99
2019-06-08T01:44:25.672Z,1008.00
2019-06-08T01:45:25.688Z,1008.04
2019-06-08T01:46:25.913Z,1008.01
2019-06-08T01:47:26.185Z,1008.01
2019-06-08T01:48:26.241Z,1007.97
2019-06-08T01:49:26.180Z,1007.95
2019-06-08T01:50:26.390Z,1007.98
2019-06-08T01:51:26.503Z,1008.06
2019-06-08T01:52:25.197Z,1007.95
2019-06-08T01:53:25.151Z,1007.99
2019-06-08T01:54:25.110Z,1008.03
2019-06-08T01:55:25.179Z,1008.02
2019-06-08T01:56:25.019Z,1007.99
2019-06-08T01:57:25.270Z,1008.03
2019-06-08T01:58:25.344Z,1008.10
2019-06-08T01:59:25.316Z,1007.83
2019-06-08T02:00:39.493Z,1007.87
2019-06-08T02:01:25.497Z,1007.82
2019-06-08T02:02:25.898Z,1007.83
2019-06-08T02:03:26.151Z,1007.83
2019-06-08T02:04:25.938Z,1007.93
2019-06-08T02:05:24.631Z,1007.90
2019-06-08T02:06:24.587Z,1007.84
2019-06-08T02:07:24.538Z,1007.94
2019-06-08T02:08:24.499Z,1007.93
2019-06-08T02:09:24.614Z,1007.88
2019-06-08T02:10:24.464Z,1007.96
2019-06-08T02:11:24.551Z,1007.98
2019-06-08T02:12:24.795Z,1008.03
2019-06-08T02:13:24.920Z,1008.01
2019-06-08T02:14:25.011Z,1007.89
2019-06-08T02:15:25.201Z,1007.94
2019-06-08T02:16:25.647Z,1008.07
2019-06-08T02:17:25.142Z,1007.99
2019-06-08T02:18:36.563Z,1008.07
2019-06-08T02:19:24.021Z,1008.09
2019-06-08T02:20:23.982Z,1008.11
2019-06-08T02:21:23.936Z,1008.15
2019-06-08T02:22:23.888Z,1008.12
2019-06-08T02:23:23.846Z,1008.07
2019-06-08T02:24:23.803Z,1008.21
2019-06-08T02:25:23.761Z,1008.17
2019-06-08T02:26:26.958Z,1008.26
2019-06-08T02:27:23.672Z,1008.14
2019-06-08T02:28:23.627Z,1008.15
2019-06-08T02:29:23.583Z,1008.24
2019-06-08T02:30:23.550Z,1008.12
2019-06-08T02:31:23.498Z,1008.26
2019-06-08T02:32:23.455Z,1008.13
2019-06-08T02:33:23.414Z,1008.22
2019-06-08T02:34:23.367Z,1008.16
2019-06-08T02:35:23.329Z,1008.23
2019-06-08T02:36:23.281Z,1008.03
2019-06-08T02:37:23.239Z,1008.31
2019-06-08T02:38:23.193Z,1008.15
2019-06-08T02:39:23.148Z,1008.23
2019-06-08T02:40:23.104Z,1008.17
2019-06-08T02:41:23.062Z,1008.20
2019-06-08T02:42:23.017Z,1008.24
2019-06-08T02:43:22.982Z,1008.29
2019-06-08T02:44:22.931Z,1008.27
2019-06-08T02:45:22.910Z,1008.27
2019-06-08T02:46:22.845Z,1008.39
2019-06-08T02:47:22.805Z,1008.56
2019-06-08T02:48:22.757Z,1008.45
2019-06-08T02:49:22.719Z,1008.41
2019-06-08T02:50:22.669Z,1008.53
2019-06-08T02:51:22.623Z,1008.49
2019-06-08T02:52:22.584Z,1008.46
2019-06-08T02:53:22.540Z,1008.54
2019-06-08T02:54:22.502Z,1008.52
2019-06-08T02:55:22.456Z,1008.64
2019-06-08T02:56:22.418Z,1008.39
2019-06-08T02:57:22.579Z,1008.52
2019-06-08T02:58:22.333Z,1008.63
2019-06-08T02:59:22.279Z,1008.59
2019-06-08T03:00:22.243Z,1008.58
2019-06-08T03:01:22.193Z,1008.53
2019-06-08T03:02:22.148Z,1008.80
2019-06-08T03:03:22.508Z,1008.57
2019-06-08T03:04:22.060Z,1008.70
2019-06-08T03:05:22.027Z,1008.59
2019-06-08T03:06:21.982Z,1008.69
2019-06-08T03:07:21.929Z,1008.68
2019-06-08T03:08:21.891Z,1008.77
2019-06-08T03:09:21.848Z,1008.36
2019-06-08T03:10:21.797Z,1008.65
2019-06-08T03:11:21.761Z,1008.79
2019-06-08T03:12:21.712Z,1008.67
2019-06-08T03:13:21.676Z,1008.66
2019-06-08T03:14:21.624Z,1008.74
2019-06-08T03:15:21.578Z,1008.69
2019-06-08T03:16:21.546Z,1008.50
2019-06-08T03:17:21.493Z,1008.72
2019-06-08T03:18:21.449Z,1008.71
2019-06-08T03:19:22.885Z,1008.62
2019-06-08T03:20:21.360Z,1008.76
2019-06-08T03:21:21.319Z,1008.68
2019-06-08T03:22:21.277Z,1008.89
2019-06-08T03:23:21.345Z,1008.71
2019-06-08T03:24:21.190Z,1008.82
2019-06-08T03:25:21.141Z,1008.74
2019-06-08T03:26:21.113Z,1008.89
2019-06-08T03:27:21.055Z,1008.81
2019-06-08T03:28:21.012Z,1008.72
2019-06-08T03:29:20.977Z,1008.80
2019-06-08T03:30:20.928Z,1008.88
2019-06-08T03:31:20.882Z,1008.71
2019-06-08T03:32:20.839Z,1008.86
2019-06-08T03:33:20.795Z,1008.87
2019-06-08T03:34:20.761Z,1008.89
2019-06-08T03:35:20.719Z,1008.74
2019-06-08T03:36:20.681Z,1008.73
2019-06-08T03:37:20.618Z,1008.99
2019-06-08T03:38:20.576Z,1009.08
2019-06-08T03:39:20.526Z,1009.08
2019-06-08T03:40:20.491Z,1008.92
2019-06-08T03:41:20.443Z,1009.09
2019-06-08T03:42:20.402Z,1009.08
2019-06-08T03:43:20.355Z,1009.15
2019-06-08T03:44:20.332Z,1009.03
2019-06-08T03:45:20.271Z,1009.05
2019-06-08T03:46:20.237Z,1009.03
2019-06-08T03:47:20.183Z,1009.00
2019-06-08T03:48:20.152Z,1008.99
2019-06-08T03:49:37.111Z,1009.03
2019-06-08T03:50:20.051Z,1009.10
2019-06-08T03:51:20.001Z,1009.20
2019-06-08T03:52:19.962Z,1009.15
2019-06-08T03:53:19.920Z,1009.16
2019-06-08T03:54:19.873Z,1009.14
2019-06-08T03:55:19.895Z,1009.11
2019-06-08T03:56:19.791Z,1009.09
2019-06-08T03:57:19.741Z,1009.19
2019-06-08T03:58:19.717Z,1009.12
2019-06-08T04:00:19.619Z,1009.12
2019-06-08T04:01:19.566Z,1009.16
2019-06-08T04:02:19.527Z,1009.09
2019-06-08T04:03:19.480Z,1009.25
2019-06-08T04:04:19.441Z,1009.06
2019-06-08T04:05:19.393Z,1009.15
2019-06-08T04:06:19.348Z,1009.10
2019-06-08T04:07:19.306Z,1009.19
2019-06-08T04:08:19.260Z,1009.09
2019-06-08T04:09:19.218Z,1009.07
2019-06-08T04:10:19.174Z,1009.20
2019-06-08T04:11:19.142Z,1009.05
2019-06-08T04:12:19.094Z,1009.24
2019-06-08T04:13:19.041Z,1009.07
2019-06-08T04:14:19.000Z,1009.16
2019-06-08T04:15:18.956Z,1009.14
2019-06-08T04:16:18.914Z,1009.13
2019-06-08T04:17:18.867Z,1009.15
2019-06-08T04:18:18.839Z,1009.12
2019-06-08T04:19:18.779Z,1009.20
2019-06-08T04:20:18.737Z,1009.19
2019-06-08T04:21:18.693Z,1009.14
2019-06-08T04:22:18.645Z,1009.15
2019-06-08T04:23:18.629Z,1009.19
2019-06-08T04:24:18.560Z,1009.26
2019-06-08T04:25:18.533Z,1009.26
2019-06-08T04:26:18.472Z,1009.26
2019-06-08T04:27:18.430Z,1009.27
2019-06-08T04:28:18.386Z,1009.24
2019-06-08T04:29:18.343Z,1009.32
2019-06-08T04:30:18.298Z,1009.28
2019-06-08T04:31:18.287Z,1009.30
2019-06-08T04:32:18.208Z,1009.27
2019-06-08T04:33:18.172Z,1009.26
2019-06-08T04:34:18.119Z,1009.40
2019-06-08T04:35:18.077Z,1009.30
2019-06-08T04:36:18.034Z,1009.33
2019-06-08T04:37:17.989Z,1009.25
2019-06-08T04:38:17.947Z,1009.36
2019-06-08T04:39:17.907Z,1009.24
2019-06-08T04:40:17.859Z,1009.17
2019-06-08T04:41:17.812Z,1009.30
2019-06-08T04:42:17.771Z,1009.32
2019-06-08T04:43:17.728Z,1009.26
2019-06-08T04:44:17.679Z,1009.47
2019-06-08T04:45:17.647Z,1009.40
2019-06-08T04:46:17.598Z,1009.38
2019-06-08T04:47:17.551Z,1009.45
2019-06-08T04:48:17.512Z,1009.43
2019-06-08T04:49:17.469Z,1009.38
2019-06-08T04:50:23.583Z,1009.40
2019-06-08T04:51:17.382Z,1009.50
2019-06-08T04:52:17.334Z,1009.48
2019-06-08T04:53:17.320Z,1009.45
2019-06-08T04:54:17.242Z,1009.50
2019-06-08T04:55:17.200Z,1009.59
2019-06-08T04:56:17.166Z,1009.53
2019-06-08T04:57:17.116Z,1009.43
2019-06-08T04:58:17.072Z,1009.62
2019-06-08T04:59:17.026Z,1009.53
2019-06-08T05:00:16.981Z,1009.51
2019-06-08T05:01:16.937Z,1009.52
2019-06-08T05:02:16.897Z,1009.65
2019-06-08T05:03:16.851Z,1009.59
2019-06-08T05:04:16.813Z,1009.48
2019-06-08T05:05:16.768Z,1009.51
2019-06-08T05:06:16.719Z,1009.67
2019-06-08T05:07:16.674Z,1009.51
2019-06-08T05:08:16.670Z,1009.64
2019-06-08T05:09:16.586Z,1009.60
2019-06-08T05:10:16.556Z,1009.64
2019-06-08T05:11:16.499Z,1009.73
2019-06-08T05:12:16.455Z,1009.64
2019-06-08T05:13:16.410Z,1009.75
2019-06-08T05:14:16.368Z,1009.77
2019-06-08T05:15:16.322Z,1009.67
2019-06-08T05:16:16.299Z,1009.72
2019-06-08T05:17:16.236Z,1009.71
2019-06-08T05:18:16.191Z,1009.73
2019-06-08T05:19:16.147Z,1009.80
2019-06-08T05:20:16.101Z,1009.74
2019-06-08T05:21:16.066Z,1009.76
2019-06-08T05:22:16.015Z,1009.82
2019-06-08T05:23:15.972Z,1009.95
2019-06-08T05:24:15.947Z,1009.86
2019-06-08T05:25:15.888Z,1009.86
2019-06-08T05:26:15.841Z,1009.82
2019-06-08T05:27:15.792Z,1009.95
2019-06-08T05:28:15.754Z,1009.92
2019-06-08T05:29:15.708Z,1009.82
2019-06-08T05:30:15.676Z,1009.92
2019-06-08T05:31:15.625Z,1009.92
2019-06-08T05:32:15.579Z,1009.98
2019-06-08T05:33:15.531Z,1009.95
2019-06-08T05:34:15.490Z,1009.89
2019-06-08T05:35:15.441Z,1009.86
2019-06-08T05:36:15.400Z,1009.91
2019-06-08T05:37:15.357Z,1009.89
2019-06-08T05:38:15.311Z,1009.95
2019-06-08T05:39:15.268Z,1009.83
2019-06-08T05:40:15.226Z,1009.87
2019-06-08T05:41:15.181Z,1009.93
2019-06-08T05:42:15.139Z,1010.00
2019-06-08T05:43:15.094Z,1009.90
2019-06-08T05:44:15.068Z,1009.90
2019-06-08T05:45:15.006Z,1010.00
2019-06-08T05:46:14.964Z,1009.98
2019-06-08T05:47:14.923Z,1010.00
2019-06-08T05:48:14.877Z,1010.09
2019-06-08T05:49:14.835Z,1010.11
2019-06-08T05:50:14.796Z,1009.97
2019-06-08T05:51:14.741Z,1010.17
2019-06-08T05:52:14.699Z,1010.02
2019-06-08T05:53:14.653Z,1010.02
2019-06-08T05:54:14.609Z,1010.06
2019-06-08T05:55:14.567Z,1010.13
2019-06-08T05:56:14.526Z,1010.24
2019-06-08T05:57:14.482Z,1010.20
2019-06-08T05:58:14.438Z,1010.20
2019-06-08T05:59:14.389Z,1010.20
2019-06-08T06:00:14.348Z,1010.14
2019-06-08T06:01:14.305Z,1010.30
2019-06-08T06:02:14.264Z,1010.23
2019-06-08T06:03:14.219Z,1010.32
2019-06-08T06:04:14.173Z,1010.26
2019-06-08T06:05:14.128Z,1010.33
2019-06-08T06:06:14.089Z,1010.21
2019-06-08T06:07:14.039Z,1010.22
2019-06-08T06:08:18.767Z,1010.39
2019-06-08T06:09:13.950Z,1010.34
2019-06-08T06:10:13.911Z,1010.26
2019-06-08T06:11:13.865Z,1010.16
2019-06-08T06:12:13.824Z,1010.35
2019-06-08T06:13:13.787Z,1010.38
2019-06-08T06:14:13.734Z,1010.24
2019-06-08T06:15:13.692Z,1010.38
2019-06-08T06:16:13.647Z,1010.31
2019-06-08T06:17:13.605Z,1010.36
2019-06-08T06:18:13.565Z,1010.32
2019-06-08T06:19:13.514Z,1010.48
2019-06-08T06:20:13.472Z,1010.33
2019-06-08T06:21:13.436Z,1010.43
2019-06-08T06:22:13.382Z,1010.41
2019-06-08T06:23:13.338Z,1010.48
2019-06-08T06:24:13.294Z,1010.46
2019-06-08T06:25:13.253Z,1010.51
2019-06-08T06:26:13.206Z,1010.40
2019-06-08T06:27:13.161Z,1010.47
2019-06-08T06:28:13.120Z,1010.52
2019-06-08T06:29:13.097Z,1010.65
2019-06-08T06:30:13.033Z,1010.48
2019-06-08T06:31:12.994Z,1010.56
2019-06-08T06:32:12.943Z,1010.43
2019-06-08T06:33:12.900Z,1010.59
2019-06-08T06:34:12.860Z,1010.60
2019-06-08T06:35:12.813Z,1010.55
2019-06-08T06:36:12.768Z,1010.42
2019-06-08T06:37:12.725Z,1010.58
2019-06-08T06:38:12.686Z,1010.60
2019-06-08T06:39:12.640Z,1010.69
2019-06-08T06:40:12.597Z,1010.68
2019-06-08T06:41:12.556Z,1010.62
2019-06-08T06:42:12.506Z,1010.84
2019-06-08T06:43:12.464Z,1010.82
2019-06-08T06:44:12.422Z,1010.82
2019-06-08T06:45:12.373Z,1010.70
2019-06-08T06:46:12.332Z,1010.84
2019-06-08T06:47:12.289Z,1010.71
2019-06-08T06:48:12.250Z,1010.85
2019-06-08T06:49:12.199Z,1010.85
2019-06-08T06:50:12.155Z,1011.03
2019-06-08T06:51:25.241Z,1010.93
2019-06-08T06:52:12.069Z,1010.98
2019-06-08T06:53:12.028Z,1010.92
2019-06-08T06:54:11.984Z,1011.11
2019-06-08T06:55:11.938Z,1010.86
2019-06-08T06:56:11.894Z,1010.96
2019-06-08T06:57:11.853Z,1010.89
2019-06-08T06:58:11.818Z,1010.99
2019-06-08T06:59:11.763Z,1010.96
2019-06-08T07:00:11.721Z,1011.13
2019-06-08T07:01:11.677Z,1011.13
2019-06-08T07:02:11.638Z,1011.15
2019-06-08T07:03:11.598Z,1011.14
2019-06-08T07:04:11.544Z,1011.28
2019-06-08T07:05:11.502Z,1011.21
2019-06-08T07:06:11.468Z,1011.22
2019-06-08T07:07:11.417Z,1011.38
2019-06-08T07:08:11.375Z,1011.42
2019-06-08T07:09:11.331Z,1011.42
2019-06-08T07:10:11.284Z,1011.32
2019-06-08T07:11:11.243Z,1011.53
2019-06-08T07:12:11.198Z,1011.41
2019-06-08T07:13:11.156Z,1011.35
2019-06-08T07:14:11.115Z,1011.32
2019-06-08T07:15:11.065Z,1011.40
2019-06-08T07:16:18.285Z,1011.40
2019-06-08T07:17:10.979Z,1011.48
2019-06-08T07:18:10.937Z,1011.63
2019-06-08T07:19:10.904Z,1011.43
2019-06-08T07:20:10.850Z,1011.54
2019-06-08T07:21:10.813Z,1011.61
2019-06-08T07:22:10.767Z,1011.56
2019-06-08T07:23:10.723Z,1011.55
2019-06-08T07:24:10.678Z,1011.61
2019-06-08T07:25:10.635Z,1011.67
2019-06-08T07:26:10.607Z,1011.70
2019-06-08T07:27:10.545Z,1011.71
2019-06-08T07:28:10.501Z,1011.67
2019-06-08T07:29:10.461Z,1011.57
2019-06-08T07:30:10.427Z,1011.79
2019-06-08T07:31:10.375Z,1011.67
2019-06-08T07:32:10.348Z,1011.78
2019-06-08T07:33:10.284Z,1011.74
2019-06-08T07:34:10.243Z,1011.74
2019-06-08T07:35:10.215Z,1011.74
2019-06-08T07:36:10.155Z,1011.87
2019-06-08T07:37:10.124Z,1011.81
2019-06-08T07:38:10.074Z,1011.86
2019-06-08T07:39:10.026Z,1011.86
2019-06-08T07:40:09.988Z,1011.79
2019-06-08T07:41:09.938Z,1011.82
2019-06-08T07:42:09.897Z,1011.95
2019-06-08T07:43:09.851Z,1011.74
2019-06-08T07:44:09.810Z,1011.99
2019-06-08T07:45:09.767Z,1011.82
2019-06-08T07:46:09.724Z,1011.99
2019-06-08T07:47:09.684Z,1011.86
2019-06-08T07:48:09.639Z,1011.86
2019-06-08T07:49:09.819Z,1011.84
2019-06-08T07:50:09.554Z,1011.67
2019-06-08T07:51:09.518Z,1011.87
2019-06-08T07:52:10.939Z,1012.03
2019-06-08T07:53:09.425Z,1011.90
2019-06-08T07:54:09.390Z,1011.90
2019-06-08T07:55:09.332Z,1011.82
2019-06-08T07:56:09.303Z,1011.83
2019-06-08T07:57:09.261Z,1011.95
2019-06-08T07:58:09.222Z,1011.93
2019-06-08T07:59:09.187Z,1011.90
2019-06-08T08:00:09.881Z,1011.94
2019-06-08T08:01:09.103Z,1011.98
2019-06-08T08:02:09.032Z,1011.98
2019-06-08T08:03:08.995Z,1012.00
2019-06-08T08:04:08.949Z,1011.93
2019-06-08T08:05:08.920Z,1011.77
2019-06-08T08:06:08.865Z,1012.09
2019-06-08T08:07:08.819Z,1011.97
2019-06-08T08:08:08.778Z,1012.24
2019-06-08T08:09:08.740Z,1012.10
2019-06-08T08:10:08.717Z,1012.06
2019-06-08T08:11:08.646Z,1012.16
2019-06-08T08:12:12.059Z,1012.14
2019-06-08T08:13:08.564Z,1012.14
2019-06-08T08:14:08.526Z,1012.12
2019-06-08T08:15:08.471Z,1012.05
2019-06-08T08:17:08.393Z,1012.27
2019-06-08T08:18:08.345Z,1012.11
2019-06-08T08:19:08.313Z,1012.14
2019-06-08T08:20:08.263Z,1012.18
2019-06-08T08:21:21.379Z,1012.18
2019-06-08T08:22:22.117Z,1012.23
2019-06-08T08:23:09.173Z,1012.11
2019-06-08T08:24:08.087Z,1012.20
2019-06-08T08:25:08.390Z,1012.23
2019-06-08T08:26:08.001Z,1012.33
2019-06-08T08:27:08.536Z,1012.43
2019-06-08T08:28:08.254Z,1012.14
2019-06-08T08:29:08.480Z,1012.38
2019-06-08T08:30:08.443Z,1012.33
2019-06-08T08:31:10.846Z,1012.48
2019-06-08T08:32:09.905Z,1012.36
2019-06-08T08:33:07.954Z,1012.31
2019-06-08T08:34:09.030Z,1012.32
2019-06-08T08:35:08.868Z,1012.29
2019-06-08T08:36:07.571Z,1012.31
2019-06-08T08:37:09.645Z,1012.27
2019-06-08T08:38:07.791Z,1012.27
2019-06-08T08:39:08.443Z,1012.32
2019-06-08T08:40:07.843Z,1012.42
2019-06-08T08:41:10.626Z,1012.43
2019-06-08T08:42:08.450Z,1012.48
2019-06-08T08:43:09.192Z,1012.48
2019-06-08T08:44:07.998Z,1012.50
2019-06-08T08:45:08.684Z,1012.39
2019-06-08T08:46:07.655Z,1012.57
2019-06-08T08:47:07.638Z,1012.39
2019-06-08T08:48:21.455Z,1012.59
2019-06-08T08:49:11.980Z,1012.53
2019-06-08T08:50:07.433Z,1012.53
2019-06-08T08:51:08.592Z,1012.57
2019-06-08T08:52:11.214Z,1012.33
2019-06-08T08:53:08.348Z,1012.46
2019-06-08T08:54:08.505Z,1012.49
2019-06-08T08:55:08.365Z,1012.63
2019-06-08T08:56:07.328Z,1012.47
2019-06-08T08:57:08.400Z,1012.57
2019-06-08T08:58:08.378Z,1012.60
2019-06-08T08:59:07.887Z,1012.72
2019-06-08T09:00:08.586Z,1012.66
2019-06-08T09:01:08.215Z,1012.60
2019-06-08T09:02:08.350Z,1012.58
2019-06-08T09:03:21.970Z,1012.64
2019-06-08T09:04:08.578Z,1012.63
2019-06-08T09:05:08.348Z,1012.56
2019-06-08T09:06:08.512Z,1012.65
2019-06-08T09:07:09.623Z,1012.66
2019-06-08T09:08:08.640Z,1012.75
2019-06-08T09:09:08.686Z,1012.61
2019-06-08T09:10:08.601Z,1012.70
2019-06-08T09:11:08.159Z,1012.71
2019-06-08T09:12:08.095Z,1012.62
2019-06-08T09:13:09.189Z,1012.74
2019-06-08T09:14:10.876Z,1012.77
2019-06-08T09:15:08.308Z,1012.86
2019-06-08T09:16:07.987Z,1012.82
2019-06-08T09:17:08.272Z,1012.67
2019-06-08T09:18:07.939Z,1012.92
2019-06-08T09:19:08.320Z,1012.88
2019-06-08T09:20:05.683Z,1012.86
2019-06-08T09:21:08.179Z,1013.01
2019-06-08T09:22:05.594Z,1012.98
2019-06-08T09:23:12.818Z,1012.95
2019-06-08T09:24:07.603Z,1013.02
2019-06-08T09:25:05.479Z,1013.00
2019-06-08T09:26:11.657Z,1013.04
2019-06-08T09:27:07.808Z,1013.06
2019-06-08T09:28:05.338Z,1013.13
2019-06-08T09:29:10.736Z,1013.03
2019-06-08T09:30:05.294Z,1013.17
2019-06-08T09:31:05.227Z,1013.17
2019-06-08T09:32:05.162Z,1013.19
2019-06-08T09:33:07.817Z,1013.27
2019-06-08T09:34:11.118Z,1013.27
2019-06-08T09:35:05.031Z,1013.21
2019-06-08T09:36:05.759Z,1013.27
2019-06-08T09:37:05.229Z,1013.33
2019-06-08T09:38:05.144Z,1013.17
2019-06-08T09:39:09.441Z,1013.17
2019-06-08T09:40:04.861Z,1013.20
2019-06-08T09:41:05.432Z,1013.18
2019-06-08T09:42:05.175Z,1013.27
2019-06-08T09:43:10.331Z,1013.22
2019-06-08T09:44:05.962Z,1013.30
2019-06-08T09:45:05.555Z,1013.21
2019-06-08T09:46:05.538Z,1013.38
2019-06-08T09:47:11.098Z,1013.33
2019-06-08T09:48:06.445Z,1013.30
2019-06-08T09:49:08.448Z,1013.32
2019-06-08T09:50:05.636Z,1013.30
2019-06-08T09:51:05.702Z,1013.42
2019-06-08T09:52:05.348Z,1013.26
2019-06-08T09:53:20.051Z,1013.41
2019-06-08T09:54:06.290Z,1013.41
2019-06-08T09:55:06.899Z,1013.52
2019-06-08T09:56:06.547Z,1013.48
2019-06-08T09:57:06.020Z,1013.50
2019-06-08T09:58:08.096Z,1013.48
2019-06-08T09:59:07.123Z,1013.51
2019-06-08T10:00:14.511Z,1013.53
2019-06-08T10:01:06.028Z,1013.52
2019-06-08T10:02:09.416Z,1013.56
2019-06-08T10:03:06.170Z,1013.58
2019-06-08T10:04:06.096Z,1013.59
2019-06-08T10:05:04.494Z,1013.47
2019-06-08T10:06:08.343Z,1013.52
2019-06-08T10:07:04.307Z,1013.63
2019-06-08T10:08:04.577Z,1013.52
2019-06-08T10:09:04.841Z,1013.65
2019-06-08T10:10:04.780Z,1013.73
2019-06-08T10:11:05.875Z,1013.70
2019-06-08T10:12:05.014Z,1013.74
2019-06-08T10:13:06.176Z,1013.75
2019-06-08T10:14:05.356Z,1013.71
2019-06-08T10:15:04.650Z,1013.73
2019-06-08T10:16:05.725Z,1013.81
2019-06-08T10:17:04.300Z,1013.63
2019-06-08T10:18:03.689Z,1013.75
2019-06-08T10:19:05.189Z,1013.75
2019-06-08T10:20:04.489Z,1013.86
2019-06-08T10:21:04.570Z,1013.78
2019-06-08T10:22:03.067Z,1013.65
2019-06-08T10:23:05.211Z,1013.66
2019-06-08T10:24:05.946Z,1013.76
2019-06-08T10:25:06.587Z,1013.62
2019-06-08T10:26:04.423Z,1013.81
2019-06-08T10:27:03.537Z,1013.78
2019-06-08T10:28:10.128Z,1013.73
2019-06-08T10:29:05.167Z,1013.79
2019-06-08T10:30:04.309Z,1013.81
2019-06-08T10:31:03.707Z,1013.81
2019-06-08T10:32:03.700Z,1013.89
2019-06-08T10:33:04.736Z,1013.92
2019-06-08T10:34:03.869Z,1013.94
2019-06-08T10:35:04.268Z,1013.96
2019-06-08T10:36:05.247Z,1013.98
2019-06-08T10:37:06.756Z,1013.95
2019-06-08T10:38:06.501Z,1014.04
2019-06-08T10:39:03.786Z,1013.99
2019-06-08T10:40:04.339Z,1014.09
2019-06-08T10:41:09.166Z,1013.96
2019-06-08T10:42:03.582Z,1014.02
2019-06-08T10:43:03.445Z,1014.05
2019-06-08T10:44:03.373Z,1013.98
2019-06-08T10:45:06.514Z,1014.17
2019-06-08T10:46:08.504Z,1014.05
2019-06-08T10:47:04.030Z,1014.06
2019-06-08T10:48:03.249Z,1014.01
2019-06-08T10:49:01.992Z,1013.93
2019-06-08T10:50:07.567Z,1013.95
2019-06-08T10:51:03.725Z,1013.95
2019-06-08T10:52:03.689Z,1013.97
2019-06-08T10:53:04.044Z,1014.09
2019-06-08T10:54:02.234Z,1014.07
2019-06-08T10:55:03.685Z,1014.17
2019-06-08T10:56:03.014Z,1014.08
2019-06-08T10:57:04.103Z,1014.10
2019-06-08T10:58:02.373Z,1014.11
2019-06-08T10:59:03.532Z,1014.13
2019-06-08T11:00:10.837Z,1014.13
2019-06-08T11:01:03.970Z,1014.17
2019-06-08T11:02:05.123Z,1014.18
2019-06-08T11:03:03.321Z,1014.16
2019-06-08T11:04:01.971Z,1014.17
2019-06-08T11:05:04.556Z,1014.16
2019-06-08T11:06:02.883Z,1014.17
2019-06-08T11:07:05.653Z,1014.13
2019-06-08T11:08:02.552Z,1014.14
2019-06-08T11:09:04.297Z,1014.28
2019-06-08T11:10:02.037Z,1014.23
2019-06-08T11:11:01.538Z,1014.22
2019-06-08T11:12:01.961Z,1014.37
2019-06-08T11:13:06.291Z,1014.20
2019-06-08T11:14:02.524Z,1014.18
2019-06-08T11:15:01.992Z,1014.23
2019-06-08T11:16:02.425Z,1014.34
2019-06-08T11:17:00.747Z,1014.18
2019-06-08T11:18:03.539Z,1014.28
2019-06-08T11:19:02.616Z,1014.34
2019-06-08T11:20:02.475Z,1014.18
2019-06-08T11:21:01.955Z,1014.19
2019-06-08T11:22:02.863Z,1014.03
2019-06-08T11:23:02.089Z,1014.28
2019-06-08T11:24:07.418Z,1014.18
2019-06-08T11:25:01.996Z,1014.22
2019-06-08T11:26:04.577Z,1014.26
2019-06-08T11:27:01.279Z,1014.35
2019-06-08T11:28:01.737Z,1014.28
2019-06-08T11:29:01.534Z,1014.35
2019-06-08T11:30:02.930Z,1014.34
2019-06-08T11:30:59.983Z,1014.44
2019-06-08T11:32:00.639Z,1014.37
2019-06-08T11:33:00.006Z,1014.30
2019-06-08T11:34:00.483Z,1014.39
2019-06-08T11:34:59.952Z,1014.47
2019-06-08T11:36:02.908Z,1014.35
2019-06-08T11:37:01.875Z,1014.54
2019-06-08T11:38:00.206Z,1014.53
2019-06-08T11:39:00.506Z,1014.43
2019-06-08T11:39:59.861Z,1014.53
2019-06-08T11:41:00.996Z,1014.57
2019-06-08T11:42:00.280Z,1014.63
2019-06-08T11:43:00.415Z,1014.57
2019-06-08T11:44:00.107Z,1014.36
2019-06-08T11:45:00.312Z,1014.61
2019-06-08T11:46:00.550Z,1014.58
2019-06-08T11:47:00.398Z,1014.65
2019-06-08T11:48:00.499Z,1014.54
2019-06-08T11:49:01.168Z,1014.68
2019-06-08T11:50:00.415Z,1014.66
2019-06-08T11:51:00.521Z,1014.70
2019-06-08T11:52:00.374Z,1014.66
2019-06-08T11:53:00.658Z,1014.77
2019-06-08T11:53:59.440Z,1014.81
2019-06-08T11:55:01.754Z,1014.71
2019-06-08T11:55:58.893Z,1014.73
2019-06-08T11:56:58.850Z,1014.76
2019-06-08T11:57:58.808Z,1014.63
2019-06-08T11:58:58.764Z,1014.80
2019-06-08T11:59:58.719Z,1014.72
2019-06-08T12:01:01.435Z,1014.82
2019-06-08T12:01:58.742Z,1014.69
2019-06-08T12:02:58.588Z,1014.73
2019-06-08T12:03:58.549Z,1014.82
2019-06-08T12:04:58.502Z,1014.83
2019-06-08T12:05:58.463Z,1014.81
2019-06-08T12:06:58.577Z,1014.83
2019-06-08T12:07:58.371Z,1014.89
2019-06-08T12:09:00.251Z,1014.86
2019-06-08T12:09:58.439Z,1014.86
2019-06-08T12:11:02.085Z,1014.77